logo
Rechercher aéroport 
image banner adimage banner adimage banner ad
image banner ad

SCGY - Los Guayes

Situé à Cunco, Chile

ICAO - SCGY, IATA -

Données fournies par Airmate  

Information générale

Coordonnées: S39°3'8" W71°59'37"
Élévation : 1312 feet MSL.
Variation magnétique : 6° East
Voir autres Aéroports à Araucanía

Données opérationnelles

Special qualification required
Heure actuelle UTC:
Heure actuelle locale:
Météo à : SCQP - La Araucania ( 59 km )
METAR: SCQP 251500Z 26007KT 9999 SCT006 BKN015 10/09 Q1022
TAF: TAF COR SCQP 251135Z 2512/2612 35010KT 8000 -SHRA BKN020 OVC035 TX10/2518Z TNM01/2610Z BECMG 2515/2517 25008KT 9999 NSW SCT025 BECMG 2519/2521 SCT040 BECMG 2602/2604 VRB02KT TEMPO 2607/2612 0800 FZFG BKN002
Voir NOTAMs / SUP AIP / TFR affectant cet aéroport [VIEW]
Fréquences de communication: [VIEW]

Pistes:

Identifiant RWYQFULongueur (ft)Largeur (ft)SurfaceLDA (ft)
17170°189365DIRT
35350°189365DIRT

Coordonnées de l'aéroport

Adresse: Cunco Chile

Vue satellite de SCGY